sensor_id;sensor_type;location;lat;lon;timestamp;pressure;altitude;pressure_sealevel;temperature;humidity
64610;BME280;51019;46.090;6.350;2022-09-25T00:00:55;96220.94;;;12.46;100.00
64610;BME280;51019;46.090;6.350;2022-09-25T00:03:25;96227.53;;;12.50;100.00
64610;BME280;51019;46.090;6.350;2022-09-25T00:05:58;96233.94;;;12.48;100.00
64610;BME280;51019;46.090;6.350;2022-09-25T00:08:26;96235.56;;;12.41;100.00
64610;BME280;51019;46.090;6.350;2022-09-25T00:10:54;96215.59;;;12.06;100.00
64610;BME280;51019;46.090;6.350;2022-09-25T00:13:22;96234.81;;;12.14;100.00
64610;BME280;51019;46.090;6.350;2022-09-25T00:15:50;96226.28;;;12.12;100.00
64610;BME280;51019;46.090;6.350;2022-09-25T00:18:18;96220.41;;;12.26;100.00
64610;BME280;51019;46.090;6.350;2022-09-25T00:21:08;96213.03;;;12.30;100.00
64610;BME280;51019;46.090;6.350;2022-09-25T00:23:34;96110.72;;;11.62;100.00
64610;BME280;51019;46.090;6.350;2022-09-25T00:26:04;96214.47;;;12.16;100.00
64610;BME280;51019;46.090;6.350;2022-09-25T00:28:32;96202.31;;;12.15;100.00
64610;BME280;51019;46.090;6.350;2022-09-25T00:30:59;96120.56;;;11.68;100.00
64610;BME280;51019;46.090;6.350;2022-09-25T00:33:26;96207.59;;;12.23;100.00
64610;BME280;51019;46.090;6.350;2022-09-25T00:35:53;96199.03;;;12.21;100.00
64610;BME280;51019;46.090;6.350;2022-09-25T00:38:20;96202.66;;;12.20;100.00
64610;BME280;51019;46.090;6.350;2022-09-25T00:40:47;96196.56;;;12.20;100.00
64610;BME280;51019;46.090;6.350;2022-09-25T00:43:34;96205.47;;;12.19;100.00
64610;BME280;51019;46.090;6.350;2022-09-25T00:46:06;96207.09;;;12.20;100.00
64610;BME280;51019;46.090;6.350;2022-09-25T00:48:33;96154.50;;;11.95;100.00
64610;BME280;51019;46.090;6.350;2022-09-25T00:51:02;96208.72;;;12.21;100.00
64610;BME280;51019;46.090;6.350;2022-09-25T00:53:32;96204.44;;;12.12;100.00
64610;BME280;51019;46.090;6.350;2022-09-25T00:56:03;96157.09;;;11.87;100.00
64610;BME280;51019;46.090;6.350;2022-09-25T00:58:33;96197.38;;;12.12;100.00
64610;BME280;51019;46.090;6.350;2022-09-25T01:01:03;96170.56;;;11.84;100.00
64610;BME280;51019;46.090;6.350;2022-09-25T01:03:32;96183.53;;;11.94;100.00
64610;BME280;51019;46.090;6.350;2022-09-25T01:05:59;96179.75;;;11.96;100.00
64610;BME280;51019;46.090;6.350;2022-09-25T01:08:29;96127.25;;;11.54;100.00
64610;BME280;51019;46.090;6.350;2022-09-25T01:10:57;96186.13;;;11.86;100.00
64610;BME280;51019;46.090;6.350;2022-09-25T01:13:25;96093.53;;;11.34;100.00
64610;BME280;51019;46.090;6.350;2022-09-25T01:16:00;96183.16;;;11.81;100.00
64610;BME280;51019;46.090;6.350;2022-09-25T01:18:39;96169.38;;;11.87;100.00
64610;BME280;51019;46.090;6.350;2022-09-25T01:21:15;96176.81;;;11.91;100.00
64610;BME280;51019;46.090;6.350;2022-09-25T01:24:17;96173.34;;;11.91;100.00
64610;BME280;51019;46.090;6.350;2022-09-25T01:30:03;96135.31;;;11.61;100.00
64610;BME280;51019;46.090;6.350;2022-09-25T01:32:35;96172.34;;;11.84;100.00
64610;BME280;51019;46.090;6.350;2022-09-25T01:35:10;96144.19;;;11.68;100.00
64610;BME280;51019;46.090;6.350;2022-09-25T01:37:42;96170.88;;;11.81;100.00
64610;BME280;51019;46.090;6.350;2022-09-25T01:40:16;96173.34;;;11.83;100.00
64610;BME280;51019;46.090;6.350;2022-09-25T01:42:49;96173.38;;;11.99;100.00
64610;BME280;51019;46.090;6.350;2022-09-25T01:45:21;96179.50;;;11.74;100.00
64610;BME280;51019;46.090;6.350;2022-09-25T01:47:50;96160.03;;;11.50;100.00
64610;BME280;51019;46.090;6.350;2022-09-25T01:50:24;96101.50;;;11.16;100.00
64610;BME280;51019;46.090;6.350;2022-09-25T01:52:56;96154.69;;;11.68;100.00
64610;BME280;51019;46.090;6.350;2022-09-25T01:55:30;96066.75;;;11.14;100.00
64610;BME280;51019;46.090;6.350;2022-09-25T01:58:03;96177.75;;;11.82;100.00
64610;BME280;51019;46.090;6.350;2022-09-25T02:00:36;96099.16;;;11.39;100.00
64610;BME280;51019;46.090;6.350;2022-09-25T02:03:08;96170.06;;;11.89;100.00
64610;BME280;51019;46.090;6.350;2022-09-25T02:05:42;96142.56;;;11.67;100.00
64610;BME280;51019;46.090;6.350;2022-09-25T02:08:14;96165.94;;;11.86;100.00
64610;BME280;51019;46.090;6.350;2022-09-25T02:10:44;96171.25;;;11.94;100.00
64610;BME280;51019;46.090;6.350;2022-09-25T02:13:14;96169.59;;;11.93;100.00
64610;BME280;51019;46.090;6.350;2022-09-25T02:15:47;96120.72;;;11.58;100.00
64610;BME280;51019;46.090;6.350;2022-09-25T02:18:18;96173.72;;;11.96;100.00
64610;BME280;51019;46.090;6.350;2022-09-25T02:21:12;96167.66;;;12.04;100.00
64610;BME280;51019;46.090;6.350;2022-09-25T02:23:48;96154.81;;;11.84;100.00
64610;BME280;51019;46.090;6.350;2022-09-25T02:26:23;96164.13;;;11.87;100.00
64610;BME280;51019;46.090;6.350;2022-09-25T02:28:51;96156.09;;;11.80;100.00
64610;BME280;51019;46.090;6.350;2022-09-25T02:31:22;96156.25;;;11.87;100.00
64610;BME280;51019;46.090;6.350;2022-09-25T02:33:51;96161.56;;;11.95;100.00
64610;BME280;51019;46.090;6.350;2022-09-25T02:36:19;96157.28;;;11.94;100.00
64610;BME280;51019;46.090;6.350;2022-09-25T02:38:49;96040.91;;;11.27;100.00
64610;BME280;51019;46.090;6.350;2022-09-25T02:41:21;96146.28;;;11.98;100.00
64610;BME280;51019;46.090;6.350;2022-09-25T02:43:56;96138.53;;;11.81;100.00
64610;BME280;51019;46.090;6.350;2022-09-25T02:46:37;96070.47;;;11.53;100.00
64610;BME280;51019;46.090;6.350;2022-09-25T02:49:16;96147.09;;;11.99;100.00
64610;BME280;51019;46.090;6.350;2022-09-25T02:51:51;96141.84;;;11.91;100.00
64610;BME280;51019;46.090;6.350;2022-09-25T02:54:24;96140.56;;;11.95;100.00
64610;BME280;51019;46.090;6.350;2022-09-25T02:57:02;96024.66;;;11.23;100.00
64610;BME280;51019;46.090;6.350;2022-09-25T02:59:34;96130.66;;;11.81;100.00
64610;BME280;51019;46.090;6.350;2022-09-25T03:02:03;96121.13;;;11.80;100.00
64610;BME280;51019;46.090;6.350;2022-09-25T03:04:33;96078.84;;;11.49;100.00
64610;BME280;51019;46.090;6.350;2022-09-25T03:07:03;96143.19;;;11.95;100.00
64610;BME280;51019;46.090;6.350;2022-09-25T03:09:34;96153.19;;;11.99;100.00
64610;BME280;51019;46.090;6.350;2022-09-25T03:12:01;96145.31;;;11.99;100.00
64610;BME280;51019;46.090;6.350;2022-09-25T03:14:28;96032.69;;;11.30;100.00
64610;BME280;51019;46.090;6.350;2022-09-25T03:16:56;96141.31;;;11.79;100.00
64610;BME280;51019;46.090;6.350;2022-09-25T03:19:27;96116.13;;;11.60;100.00
64610;BME280;51019;46.090;6.350;2022-09-25T03:21:55;96149.03;;;11.81;100.00
64610;BME280;51019;46.090;6.350;2022-09-25T03:24:22;96104.44;;;11.55;100.00
64610;BME280;51019;46.090;6.350;2022-09-25T03:26:50;96068.78;;;11.28;100.00
64610;BME280;51019;46.090;6.350;2022-09-25T03:29:18;96147.69;;;11.77;100.00
64610;BME280;51019;46.090;6.350;2022-09-25T03:31:45;96159.22;;;11.84;100.00
64610;BME280;51019;46.090;6.350;2022-09-25T03:34:15;96106.03;;;11.40;100.00
64610;BME280;51019;46.090;6.350;2022-09-25T03:36:43;96135.47;;;11.59;100.00
64610;BME280;51019;46.090;6.350;2022-09-25T03:39:12;96150.44;;;11.67;100.00
64610;BME280;51019;46.090;6.350;2022-09-25T03:41:42;96074.72;;;11.04;100.00
64610;BME280;51019;46.090;6.350;2022-09-25T03:44:09;96084.28;;;11.13;100.00
64610;BME280;51019;46.090;6.350;2022-09-25T03:46:37;96175.28;;;11.81;100.00
64610;BME280;51019;46.090;6.350;2022-09-25T03:49:04;96134.13;;;11.47;100.00
64610;BME280;51019;46.090;6.350;2022-09-25T03:51:31;96164.56;;;11.74;100.00
64610;BME280;51019;46.090;6.350;2022-09-25T03:54:01;96108.56;;;11.57;100.00
64610;BME280;51019;46.090;6.350;2022-09-25T03:56:29;96055.69;;;11.36;100.00
64610;BME280;51019;46.090;6.350;2022-09-25T03:58:57;96157.59;;;11.91;100.00
64610;BME280;51019;46.090;6.350;2022-09-25T04:01:25;96007.59;;;10.85;100.00
64610;BME280;51019;46.090;6.350;2022-09-25T04:03:52;96152.47;;;11.81;100.00
64610;BME280;51019;46.090;6.350;2022-09-25T04:06:22;96152.38;;;11.65;100.00
64610;BME280;51019;46.090;6.350;2022-09-25T04:08:49;96168.28;;;11.63;100.00
64610;BME280;51019;46.090;6.350;2022-09-25T04:11:20;96143.94;;;11.79;100.00
64610;BME280;51019;46.090;6.350;2022-09-25T04:13:48;96133.88;;;11.75;100.00
64610;BME280;51019;46.090;6.350;2022-09-25T04:16:16;96152.69;;;11.96;100.00
64610;BME280;51019;46.090;6.350;2022-09-25T04:18:45;96077.22;;;11.56;100.00
64610;BME280;51019;46.090;6.350;2022-09-25T04:21:12;96147.63;;;12.03;100.00
64610;BME280;51019;46.090;6.350;2022-09-25T04:23:40;96125.56;;;11.87;100.00
64610;BME280;51019;46.090;6.350;2022-09-25T04:26:29;96156.19;;;12.21;100.00
64610;BME280;51019;46.090;6.350;2022-09-25T04:28:56;96068.22;;;11.58;100.00
64610;BME280;51019;46.090;6.350;2022-09-25T04:31:26;96063.63;;;11.60;100.00
64610;BME280;51019;46.090;6.350;2022-09-25T04:33:53;96149.78;;;12.15;100.00
64610;BME280;51019;46.090;6.350;2022-09-25T04:36:19;96146.28;;;11.98;100.00
64610;BME280;51019;46.090;6.350;2022-09-25T04:38:46;96138.53;;;11.81;100.00
64610;BME280;51019;46.090;6.350;2022-09-25T04:41:14;96149.72;;;11.91;100.00
64610;BME280;51019;46.090;6.350;2022-09-25T04:43:45;96149.38;;;11.86;100.00
64610;BME280;51019;46.090;6.350;2022-09-25T04:46:13;96150.88;;;11.62;100.00
64610;BME280;51019;46.090;6.350;2022-09-25T04:48:43;96134.13;;;11.47;100.00
64610;BME280;51019;46.090;6.350;2022-09-25T04:51:11;96141.69;;;11.50;100.00
64610;BME280;51019;46.090;6.350;2022-09-25T04:53:38;96117.13;;;11.25;100.00
64610;BME280;51019;46.090;6.350;2022-09-25T04:56:07;96124.88;;;11.35;100.00
64610;BME280;51019;46.090;6.350;2022-09-25T04:58:36;96151.50;;;11.48;100.00
64610;BME280;51019;46.090;6.350;2022-09-25T05:01:06;96131.00;;;11.52;100.00
64610;BME280;51019;46.090;6.350;2022-09-25T05:03:34;96146.88;;;11.76;100.00
64610;BME280;51019;46.090;6.350;2022-09-25T05:06:01;96147.81;;;11.67;100.00
64610;BME280;51019;46.090;6.350;2022-09-25T05:08:28;96127.44;;;11.61;100.00
64610;BME280;51019;46.090;6.350;2022-09-25T05:10:55;96141.03;;;11.56;100.00
64610;BME280;51019;46.090;6.350;2022-09-25T05:13:22;96130.00;;;11.45;100.00
64610;BME280;51019;46.090;6.350;2022-09-25T05:15:49;96148.09;;;11.64;100.00
64610;BME280;51019;46.090;6.350;2022-09-25T05:18:18;96146.97;;;11.67;100.00
64610;BME280;51019;46.090;6.350;2022-09-25T05:20:46;96122.97;;;11.53;100.00
64610;BME280;51019;46.090;6.350;2022-09-25T05:23:14;96138.28;;;11.66;100.00
64610;BME280;51019;46.090;6.350;2022-09-25T05:25:41;96119.88;;;11.58;100.00
64610;BME280;51019;46.090;6.350;2022-09-25T05:28:09;96148.38;;;11.79;100.00
64610;BME280;51019;46.090;6.350;2022-09-25T05:30:37;96038.06;;;10.86;100.00
64610;BME280;51019;46.090;6.350;2022-09-25T05:33:04;96155.16;;;11.63;100.00
64610;BME280;51019;46.090;6.350;2022-09-25T05:35:33;96153.06;;;11.67;100.00
64610;BME280;51019;46.090;6.350;2022-09-25T05:38:01;96156.91;;;11.81;100.00
64610;BME280;51019;46.090;6.350;2022-09-25T05:40:28;96143.88;;;11.71;100.00
64610;BME280;51019;46.090;6.350;2022-09-25T05:42:55;96160.47;;;11.72;100.00
64610;BME280;51019;46.090;6.350;2022-09-25T05:45:22;96167.06;;;11.76;100.00
64610;BME280;51019;46.090;6.350;2022-09-25T05:47:59;96147.84;;;11.75;100.00
64610;BME280;51019;46.090;6.350;2022-09-25T05:50:27;96164.06;;;11.71;100.00
64610;BME280;51019;46.090;6.350;2022-09-25T05:52:56;96154.69;;;11.68;100.00
64610;BME280;51019;46.090;6.350;2022-09-25T05:55:23;96114.06;;;11.38;100.00
64610;BME280;51019;46.090;6.350;2022-09-25T05:57:50;96060.00;;;11.11;100.00
64610;BME280;51019;46.090;6.350;2022-09-25T06:00:18;96170.75;;;11.65;100.00
64610;BME280;51019;46.090;6.350;2022-09-25T06:02:50;96117.69;;;11.45;100.00
64610;BME280;51019;46.090;6.350;2022-09-25T06:05:18;96158.13;;;11.60;100.00
64610;BME280;51019;46.090;6.350;2022-09-25T06:07:51;96176.56;;;11.77;100.00
64610;BME280;51019;46.090;6.350;2022-09-25T06:10:20;96140.59;;;11.69;100.00
64610;BME280;51019;46.090;6.350;2022-09-25T06:12:47;96197.69;;;12.09;100.00
64610;BME280;51019;46.090;6.350;2022-09-25T06:15:14;96151.75;;;11.71;100.00
64610;BME280;51019;46.090;6.350;2022-09-25T06:17:41;96188.44;;;11.89;100.00
64610;BME280;51019;46.090;6.350;2022-09-25T06:20:09;96173.34;;;11.83;100.00
64610;BME280;51019;46.090;6.350;2022-09-25T06:22:37;96115.88;;;11.38;100.00
64610;BME280;51019;46.090;6.350;2022-09-25T06:25:04;96201.06;;;11.85;100.00
64610;BME280;51019;46.090;6.350;2022-09-25T06:27:33;96136.59;;;11.49;100.00
64610;BME280;51019;46.090;6.350;2022-09-25T06:30:00;96202.63;;;12.04;100.00
64610;BME280;51019;46.090;6.350;2022-09-25T06:32:27;96209.97;;;12.00;100.00
64610;BME280;51019;46.090;6.350;2022-09-25T06:34:54;96156.97;;;11.63;100.00
64610;BME280;51019;46.090;6.350;2022-09-25T06:37:21;96148.81;;;11.74;100.00
64610;BME280;51019;46.090;6.350;2022-09-25T06:39:48;96134.53;;;11.69;100.00
64610;BME280;51019;46.090;6.350;2022-09-25T06:42:15;96195.13;;;12.33;100.00
64610;BME280;51019;46.090;6.350;2022-09-25T06:44:44;96186.09;;;12.28;100.00
64610;BME280;51019;46.090;6.350;2022-09-25T06:47:11;96178.38;;;12.18;100.00
64610;BME280;51019;46.090;6.350;2022-09-25T06:49:38;96198.41;;;12.27;100.00
64610;BME280;51019;46.090;6.350;2022-09-25T06:52:05;96189.22;;;12.31;100.00
64610;BME280;51019;46.090;6.350;2022-09-25T06:54:32;96204.53;;;12.52;100.00
64610;BME280;51019;46.090;6.350;2022-09-25T06:56:59;96182.00;;;12.42;100.00
64610;BME280;51019;46.090;6.350;2022-09-25T06:59:29;96196.31;;;12.55;100.00
64610;BME280;51019;46.090;6.350;2022-09-25T07:01:58;96205.22;;;12.70;100.00
64610;BME280;51019;46.090;6.350;2022-09-25T07:04:45;96207.69;;;12.64;100.00
64610;BME280;51019;46.090;6.350;2022-09-25T07:07:11;96204.53;;;12.77;100.00
64610;BME280;51019;46.090;6.350;2022-09-25T07:09:38;96162.31;;;12.70;100.00
64610;BME280;51019;46.090;6.350;2022-09-25T07:12:05;96195.50;;;12.87;100.00
64610;BME280;51019;46.090;6.350;2022-09-25T07:14:34;96115.97;;;12.53;100.00
64610;BME280;51019;46.090;6.350;2022-09-25T07:17:03;96196.84;;;13.16;100.00
64610;BME280;51019;46.090;6.350;2022-09-25T07:19:30;96206.38;;;13.17;100.00
64610;BME280;51019;46.090;6.350;2022-09-25T07:21:57;96167.91;;;12.91;100.00
64610;BME280;51019;46.090;6.350;2022-09-25T07:24:24;96206.38;;;13.17;100.00
64610;BME280;51019;46.090;6.350;2022-09-25T07:26:51;96159.69;;;12.86;100.00
64610;BME280;51019;46.090;6.350;2022-09-25T07:29:18;96210.81;;;13.24;100.00
64610;BME280;51019;46.090;6.350;2022-09-25T07:31:45;96205.72;;;13.15;100.00
64610;BME280;51019;46.090;6.350;2022-09-25T07:34:14;96200.63;;;13.29;100.00
64610;BME280;51019;46.090;6.350;2022-09-25T07:36:41;96211.94;;;13.22;100.00
64610;BME280;51019;46.090;6.350;2022-09-25T07:39:08;96199.31;;;13.17;100.00
64610;BME280;51019;46.090;6.350;2022-09-25T07:41:35;96213.97;;;13.20;100.00
64610;BME280;51019;46.090;6.350;2022-09-25T07:44:03;96217.81;;;13.56;100.00
64610;BME280;51019;46.090;6.350;2022-09-25T07:46:30;96134.31;;;13.09;100.00
64610;BME280;51019;46.090;6.350;2022-09-25T07:48:57;96160.66;;;13.26;100.00
64610;BME280;51019;46.090;6.350;2022-09-25T07:51:26;96221.28;;;13.65;100.00
64610;BME280;51019;46.090;6.350;2022-09-25T07:53:53;96223.72;;;13.66;100.00
64610;BME280;51019;46.090;6.350;2022-09-25T07:56:21;96130.38;;;13.14;100.00
64610;BME280;51019;46.090;6.350;2022-09-25T07:58:51;96188.25;;;13.38;100.00
64610;BME280;51019;46.090;6.350;2022-09-25T08:01:18;96224.00;;;13.79;100.00
64610;BME280;51019;46.090;6.350;2022-09-25T08:16:50;96133.06;;;12.97;100.00
64610;BME280;51019;46.090;6.350;2022-09-25T08:19:27;96113.00;;;12.80;100.00
64610;BME280;51019;46.090;6.350;2022-09-25T08:24:22;96226.66;;;13.71;100.00
64610;BME280;51019;46.090;6.350;2022-09-25T08:26:50;96231.28;;;13.69;100.00
64610;BME280;51019;46.090;6.350;2022-09-25T08:29:17;96217.94;;;13.71;100.00
64610;BME280;51019;46.090;6.350;2022-09-25T08:31:45;96228.31;;;13.72;100.00
64610;BME280;51019;46.090;6.350;2022-09-25T08:34:14;96225.34;;;13.75;100.00
64610;BME280;51019;46.090;6.350;2022-09-25T08:36:42;96229.47;;;13.70;100.00
64610;BME280;51019;46.090;6.350;2022-09-25T08:39:09;96168.16;;;13.45;100.00
64610;BME280;51019;46.090;6.350;2022-09-25T08:41:44;96216.63;;;13.75;100.00
64610;BME280;51019;46.090;6.350;2022-09-25T08:44:21;96233.31;;;14.06;100.00
64610;BME280;51019;46.090;6.350;2022-09-25T08:46:52;96236.09;;;14.05;100.00
64610;BME280;51019;46.090;6.350;2022-09-25T08:49:44;96221.00;;;13.99;100.00
64610;BME280;51019;46.090;6.350;2022-09-25T08:52:15;96140.13;;;13.60;100.00
64610;BME280;51019;46.090;6.350;2022-09-25T08:54:43;96234.00;;;14.31;100.00
64610;BME280;51019;46.090;6.350;2022-09-25T08:57:17;96231.34;;;14.39;100.00
64610;BME280;51019;46.090;6.350;2022-09-25T08:59:51;96208.00;;;14.28;100.00
64610;BME280;51019;46.090;6.350;2022-09-25T09:02:23;96230.31;;;14.48;100.00
64610;BME280;51019;46.090;6.350;2022-09-25T09:04:56;96192.78;;;14.38;96.58
64610;BME280;51019;46.090;6.350;2022-09-25T09:07:32;96232.50;;;14.68;94.17
64610;BME280;51019;46.090;6.350;2022-09-25T09:10:06;96229.91;;;14.60;89.75
64610;BME280;51019;46.090;6.350;2022-09-25T09:12:37;96224.75;;;14.43;90.04
64610;BME280;51019;46.090;6.350;2022-09-25T09:15:17;96227.22;;;14.37;90.96
64610;BME280;51019;46.090;6.350;2022-09-25T09:17:48;96219.22;;;14.22;91.28
64610;BME280;51019;46.090;6.350;2022-09-25T09:20:20;96225.44;;;14.29;92.63
64610;BME280;51019;46.090;6.350;2022-09-25T09:22:50;96226.78;;;14.25;94.70
64610;BME280;51019;46.090;6.350;2022-09-25T09:25:25;96210.25;;;14.08;94.68
64610;BME280;51019;46.090;6.350;2022-09-25T09:28:37;96206.00;;;13.99;97.04
64610;BME280;51019;46.090;6.350;2022-09-25T09:31:14;96234.72;;;14.17;96.82
64610;BME280;51019;46.090;6.350;2022-09-25T09:33:49;96233.03;;;14.24;97.35
64610;BME280;51019;46.090;6.350;2022-09-25T09:36:30;96229.50;;;14.09;96.90
64610;BME280;51019;46.090;6.350;2022-09-25T09:39:05;96238.84;;;14.20;97.29
64610;BME280;51019;46.090;6.350;2022-09-25T09:41:50;96241.03;;;14.00;96.80
64610;BME280;51019;46.090;6.350;2022-09-25T09:44:31;96184.31;;;13.26;96.16
64610;BME280;51019;46.090;6.350;2022-09-25T09:47:19;96247.34;;;13.91;96.12
64610;BME280;51019;46.090;6.350;2022-09-25T09:49:53;96236.38;;;13.71;97.02
64610;BME280;51019;46.090;6.350;2022-09-25T09:52:29;96241.78;;;13.77;99.19
64610;BME280;51019;46.090;6.350;2022-09-25T09:55:02;96244.56;;;14.23;98.11
64610;BME280;51019;46.090;6.350;2022-09-25T09:57:42;96243.75;;;14.23;98.75
64610;BME280;51019;46.090;6.350;2022-09-25T10:00:14;96236.47;;;14.41;96.55
64610;BME280;51019;46.090;6.350;2022-09-25T10:02:43;96223.06;;;14.11;98.62
64610;BME280;51019;46.090;6.350;2022-09-25T10:05:16;96240.84;;;14.17;94.18
64610;BME280;51019;46.090;6.350;2022-09-25T10:07:47;96218.59;;;14.12;94.38
64610;BME280;51019;46.090;6.350;2022-09-25T10:10:17;96239.13;;;14.25;95.57
64610;BME280;51019;46.090;6.350;2022-09-25T10:12:46;96238.91;;;14.73;91.48
64610;BME280;51019;46.090;6.350;2022-09-25T10:15:23;96201.38;;;14.40;88.58
64610;BME280;51019;46.090;6.350;2022-09-25T10:17:53;96200.66;;;14.92;87.06
64610;BME280;51019;46.090;6.350;2022-09-25T10:20:22;96244.66;;;15.37;84.17
64610;BME280;51019;46.090;6.350;2022-09-25T10:22:52;96236.91;;;14.98;82.66
64610;BME280;51019;46.090;6.350;2022-09-25T10:25:34;96241.00;;;15.23;80.12
64610;BME280;51019;46.090;6.350;2022-09-25T10:28:20;96221.69;;;15.75;78.55
64610;BME280;51019;46.090;6.350;2022-09-25T10:30:49;96213.13;;;16.03;78.27
64610;BME280;51019;46.090;6.350;2022-09-25T10:33:19;96137.59;;;16.15;74.34
64610;BME280;51019;46.090;6.350;2022-09-25T10:35:47;96231.69;;;16.96;69.66
64610;BME280;51019;46.090;6.350;2022-09-25T10:38:29;96237.84;;;16.82;69.04
64610;BME280;51019;46.090;6.350;2022-09-25T10:41:01;96234.06;;;17.33;66.80
64610;BME280;51019;46.090;6.350;2022-09-25T10:43:29;96227.66;;;17.21;68.10
64610;BME280;51019;46.090;6.350;2022-09-25T10:46:10;96095.78;;;17.10;67.00
64610;BME280;51019;46.090;6.350;2022-09-25T10:48:39;96215.25;;;18.19;64.04
64610;BME280;51019;46.090;6.350;2022-09-25T10:51:24;96225.94;;;17.63;62.51
64610;BME280;51019;46.090;6.350;2022-09-25T10:54:10;96167.91;;;19.42;57.40
64610;BME280;51019;46.090;6.350;2022-09-25T10:56:39;96219.50;;;20.77;53.42
64610;BME280;51019;46.090;6.350;2022-09-25T10:59:12;96233.94;;;19.65;55.12
64610;BME280;51019;46.090;6.350;2022-09-25T11:01:43;96223.66;;;18.76;59.88
64610;BME280;51019;46.090;6.350;2022-09-25T11:04:14;96231.97;;;18.12;62.66
64610;BME280;51019;46.090;6.350;2022-09-25T11:06:44;96217.34;;;17.61;64.50
64610;BME280;51019;46.090;6.350;2022-09-25T11:09:17;96149.50;;;16.83;64.81
64610;BME280;51019;46.090;6.350;2022-09-25T11:11:46;96154.94;;;16.75;65.70
64610;BME280;51019;46.090;6.350;2022-09-25T11:14:20;96231.75;;;17.02;65.76
64610;BME280;51019;46.090;6.350;2022-09-25T11:16:54;96180.72;;;16.30;68.20
64610;BME280;51019;46.090;6.350;2022-09-25T11:19:27;96245.63;;;16.18;67.75
64610;BME280;51019;46.090;6.350;2022-09-25T11:22:08;96245.81;;;17.24;65.33
64610;BME280;51019;46.090;6.350;2022-09-25T11:24:46;96110.69;;;16.26;62.76
64610;BME280;51019;46.090;6.350;2022-09-25T11:27:18;96239.66;;;17.73;63.75
64610;BME280;51019;46.090;6.350;2022-09-25T11:29:53;96243.84;;;17.33;64.58
64610;BME280;51019;46.090;6.350;2022-09-25T11:32:27;96244.88;;;17.38;65.83
64610;BME280;51019;46.090;6.350;2022-09-25T11:35:11;96234.59;;;17.22;65.39
64610;BME280;51019;46.090;6.350;2022-09-25T11:37:48;96238.16;;;17.36;65.16
64610;BME280;51019;46.090;6.350;2022-09-25T11:40:30;96233.97;;;16.78;69.25
64610;BME280;51019;46.090;6.350;2022-09-25T11:43:22;96240.56;;;16.52;67.15
64610;BME280;51019;46.090;6.350;2022-09-25T11:45:57;96241.38;;;16.67;69.94
64610;BME280;51019;46.090;6.350;2022-09-25T11:48:32;96216.59;;;16.39;69.27
64610;BME280;51019;46.090;6.350;2022-09-25T11:51:12;96234.94;;;16.41;68.24
64610;BME280;51019;46.090;6.350;2022-09-25T11:53:54;96194.38;;;16.33;69.48
64610;BME280;51019;46.090;6.350;2022-09-25T11:56:32;96209.25;;;16.20;68.27
64610;BME280;51019;46.090;6.350;2022-09-25T11:59:14;96213.84;;;16.11;69.96
64610;BME280;51019;46.090;6.350;2022-09-25T12:01:55;96221.66;;;16.19;69.39
64610;BME280;51019;46.090;6.350;2022-09-25T12:04:55;96225.59;;;16.23;69.02
64610;BME280;51019;46.090;6.350;2022-09-25T12:07:37;96223.78;;;16.09;70.61
64610;BME280;51019;46.090;6.350;2022-09-25T12:10:18;96232.88;;;16.36;70.12
64610;BME280;51019;46.090;6.350;2022-09-25T12:12:59;96225.19;;;16.41;71.57
64610;BME280;51019;46.090;6.350;2022-09-25T12:15:46;96166.16;;;16.05;69.92
64610;BME280;51019;46.090;6.350;2022-09-25T12:18:23;96188.19;;;16.26;70.63
64610;BME280;51019;46.090;6.350;2022-09-25T12:20:56;96152.53;;;15.72;69.15
64610;BME280;51019;46.090;6.350;2022-09-25T12:23:30;96179.06;;;15.78;70.64
64610;BME280;51019;46.090;6.350;2022-09-25T12:26:14;96228.59;;;16.06;72.66
64610;BME280;51019;46.090;6.350;2022-09-25T12:28:58;96231.53;;;15.96;73.37
64610;BME280;51019;46.090;6.350;2022-09-25T12:31:37;96140.47;;;15.10;72.93
64610;BME280;51019;46.090;6.350;2022-09-25T12:34:22;96149.41;;;15.09;79.46
64610;BME280;51019;46.090;6.350;2022-09-25T12:36:57;96231.84;;;15.49;80.99
64610;BME280;51019;46.090;6.350;2022-09-25T12:39:34;96210.53;;;15.13;82.61
64610;BME280;51019;46.090;6.350;2022-09-25T12:42:08;96236.84;;;14.83;83.88
64610;BME280;51019;46.090;6.350;2022-09-25T12:44:46;96241.59;;;14.26;90.29
64610;BME280;51019;46.090;6.350;2022-09-25T12:47:29;96230.06;;;13.96;100.00
64610;BME280;51019;46.090;6.350;2022-09-25T12:50:05;96234.25;;;14.52;99.32
64610;BME280;51019;46.090;6.350;2022-09-25T12:52:37;96194.13;;;14.42;100.00
64610;BME280;51019;46.090;6.350;2022-09-25T12:55:11;96164.88;;;14.21;100.00
64610;BME280;51019;46.090;6.350;2022-09-25T12:57:44;96234.53;;;14.58;100.00
64610;BME280;51019;46.090;6.350;2022-09-25T13:00:18;96239.09;;;14.41;100.00
64610;BME280;51019;46.090;6.350;2022-09-25T13:02:54;96246.00;;;14.34;98.28
64610;BME280;51019;46.090;6.350;2022-09-25T13:05:28;96242.53;;;15.18;97.32
64610;BME280;51019;46.090;6.350;2022-09-25T13:08:03;96182.63;;;15.56;93.04
64610;BME280;51019;46.090;6.350;2022-09-25T13:10:37;96245.50;;;16.70;91.85
64610;BME280;51019;46.090;6.350;2022-09-25T13:13:09;96241.03;;;16.92;88.25
64610;BME280;51019;46.090;6.350;2022-09-25T13:15:47;96242.19;;;17.81;84.76
64610;BME280;51019;46.090;6.350;2022-09-25T13:18:16;96221.69;;;17.40;82.05
64610;BME280;51019;46.090;6.350;2022-09-25T13:20:50;96230.16;;;17.57;83.29
64610;BME280;51019;46.090;6.350;2022-09-25T13:23:26;96233.97;;;17.69;72.39
64610;BME280;51019;46.090;6.350;2022-09-25T13:25:57;96213.66;;;17.55;75.80
64610;BME280;51019;46.090;6.350;2022-09-25T13:28:29;96237.16;;;17.16;82.85
64610;BME280;51019;46.090;6.350;2022-09-25T13:31:05;96107.19;;;15.68;83.73
64610;BME280;51019;46.090;6.350;2022-09-25T13:33:40;96232.78;;;16.29;86.04
64610;BME280;51019;46.090;6.350;2022-09-25T13:36:17;96245.28;;;16.72;88.12